sensor_id;sensor_type;location;lat;lon;timestamp;pressure;altitude;pressure_sealevel;temperature;humidity
5522;BME280;2783;48.730;8.006;2022-07-05T00:00:39;100360.09;;;18.10;94.66
5522;BME280;2783;48.730;8.006;2022-07-05T00:03:05;100358.72;;;18.03;95.44
5522;BME280;2783;48.730;8.006;2022-07-05T00:05:30;100353.66;;;17.97;95.57
5522;BME280;2783;48.730;8.006;2022-07-05T00:07:55;100353.34;;;17.88;96.01
5522;BME280;2783;48.730;8.006;2022-07-05T00:10:21;100360.63;;;17.86;96.16
5522;BME280;2783;48.730;8.006;2022-07-05T00:12:46;100359.00;;;17.83;96.37
5522;BME280;2783;48.730;8.006;2022-07-05T00:15:12;100352.91;;;17.80;96.79
5522;BME280;2783;48.730;8.006;2022-07-05T00:17:37;100351.41;;;17.74;96.93
5522;BME280;2783;48.730;8.006;2022-07-05T00:20:03;100349.69;;;17.73;97.30
5522;BME280;2783;48.730;8.006;2022-07-05T00:22:29;100351.78;;;17.68;96.88
5522;BME280;2783;48.730;8.006;2022-07-05T00:24:54;100352.84;;;17.66;97.71
5522;BME280;2783;48.730;8.006;2022-07-05T00:27:20;100357.44;;;17.64;98.02
5522;BME280;2783;48.730;8.006;2022-07-05T00:29:45;100357.50;;;17.62;97.78
5522;BME280;2783;48.730;8.006;2022-07-05T00:32:11;100361.31;;;17.58;98.05
5522;BME280;2783;48.730;8.006;2022-07-05T00:34:37;100360.53;;;17.56;98.24
5522;BME280;2783;48.730;8.006;2022-07-05T00:37:02;100356.47;;;17.49;98.50
5522;BME280;2783;48.730;8.006;2022-07-05T00:39:28;100355.03;;;17.42;98.74
5522;BME280;2783;48.730;8.006;2022-07-05T00:41:53;100363.44;;;17.36;98.59
5522;BME280;2783;48.730;8.006;2022-07-05T00:44:28;100360.44;;;17.25;98.51
5522;BME280;2783;48.730;8.006;2022-07-05T00:46:55;100361.75;;;17.18;98.39
5522;BME280;2783;48.730;8.006;2022-07-05T00:49:20;100354.97;;;17.11;98.90
5522;BME280;2783;48.730;8.006;2022-07-05T00:51:46;100359.53;;;17.09;99.46
5522;BME280;2783;48.730;8.006;2022-07-05T00:54:11;100358.91;;;17.04;100.00
5522;BME280;2783;48.730;8.006;2022-07-05T00:56:37;100360.81;;;17.02;100.00
5522;BME280;2783;48.730;8.006;2022-07-05T00:59:02;100366.88;;;17.05;100.00
5522;BME280;2783;48.730;8.006;2022-07-05T01:01:28;100356.84;;;17.09;99.88
5522;BME280;2783;48.730;8.006;2022-07-05T01:03:53;100367.94;;;17.03;100.00
5522;BME280;2783;48.730;8.006;2022-07-05T01:06:19;100367.94;;;17.03;100.00
5522;BME280;2783;48.730;8.006;2022-07-05T01:08:45;100365.56;;;16.97;100.00
5522;BME280;2783;48.730;8.006;2022-07-05T01:11:11;100366.59;;;16.94;100.00
5522;BME280;2783;48.730;8.006;2022-07-05T01:13:37;100363.28;;;16.89;100.00
5522;BME280;2783;48.730;8.006;2022-07-05T01:16:03;100364.31;;;16.87;100.00
5522;BME280;2783;48.730;8.006;2022-07-05T01:18:29;100358.88;;;16.88;100.00
5522;BME280;2783;48.730;8.006;2022-07-05T01:20:55;100360.94;;;16.83;100.00
5522;BME280;2783;48.730;8.006;2022-07-05T01:23:22;100362.81;;;16.81;100.00
5522;BME280;2783;48.730;8.006;2022-07-05T01:25:48;100359.50;;;16.76;100.00
5522;BME280;2783;48.730;8.006;2022-07-05T01:28:14;100358.97;;;16.70;100.00
5522;BME280;2783;48.730;8.006;2022-07-05T01:30:40;100360.84;;;16.68;100.00
5522;BME280;2783;48.730;8.006;2022-07-05T01:33:07;100361.34;;;16.59;100.00
5522;BME280;2783;48.730;8.006;2022-07-05T01:35:33;100350.97;;;16.51;100.00
5522;BME280;2783;48.730;8.006;2022-07-05T01:37:59;100360.72;;;16.54;100.00
5522;BME280;2783;48.730;8.006;2022-07-05T01:40:24;100366.84;;;16.56;100.00
5522;BME280;2783;48.730;8.006;2022-07-05T01:42:50;100360.56;;;16.57;100.00
5522;BME280;2783;48.730;8.006;2022-07-05T01:45:16;100365.28;;;16.52;100.00
5522;BME280;2783;48.730;8.006;2022-07-05T01:48:05;100356.44;;;16.50;100.00
5522;BME280;2783;48.730;8.006;2022-07-05T01:50:34;100357.47;;;16.47;100.00
5522;BME280;2783;48.730;8.006;2022-07-05T01:53:03;100369.34;;;16.42;100.00
5522;BME280;2783;48.730;8.006;2022-07-05T01:55:30;100376.78;;;16.37;100.00
5522;BME280;2783;48.730;8.006;2022-07-05T01:57:55;100377.66;;;16.37;100.00
5522;BME280;2783;48.730;8.006;2022-07-05T02:00:21;100380.41;;;16.36;100.00
5522;BME280;2783;48.730;8.006;2022-07-05T02:02:46;100374.44;;;16.29;100.00
5522;BME280;2783;48.730;8.006;2022-07-05T02:05:12;100371.75;;;16.29;100.00
5522;BME280;2783;48.730;8.006;2022-07-05T02:07:47;100371.84;;;16.28;100.00
5522;BME280;2783;48.730;8.006;2022-07-05T02:10:12;100367.88;;;16.18;100.00
5522;BME280;2783;48.730;8.006;2022-07-05T02:12:38;100373.88;;;16.23;100.00
5522;BME280;2783;48.730;8.006;2022-07-05T02:15:04;100368.22;;;16.29;100.00
5522;BME280;2783;48.730;8.006;2022-07-05T02:17:29;100379.22;;;16.24;100.00
5522;BME280;2783;48.730;8.006;2022-07-05T02:19:54;100368.13;;;16.13;100.00
5522;BME280;2783;48.730;8.006;2022-07-05T02:22:20;100365.97;;;16.03;100.00
5522;BME280;2783;48.730;8.006;2022-07-05T02:24:46;100372.75;;;16.10;100.00
5522;BME280;2783;48.730;8.006;2022-07-05T02:27:11;100379.47;;;16.01;100.00
5522;BME280;2783;48.730;8.006;2022-07-05T02:29:37;100372.72;;;15.93;100.00
5522;BME280;2783;48.730;8.006;2022-07-05T02:32:02;100362.19;;;15.88;100.00
5522;BME280;2783;48.730;8.006;2022-07-05T02:34:28;100375.09;;;15.99;100.00
5522;BME280;2783;48.730;8.006;2022-07-05T02:36:53;100368.88;;;15.98;100.00
5522;BME280;2783;48.730;8.006;2022-07-05T02:39:18;100367.13;;;15.97;100.00
5522;BME280;2783;48.730;8.006;2022-07-05T02:41:44;100370.63;;;15.99;100.00
5522;BME280;2783;48.730;8.006;2022-07-05T02:44:09;100364.53;;;15.96;100.00
5522;BME280;2783;48.730;8.006;2022-07-05T02:46:35;100376.34;;;15.92;100.00
5522;BME280;2783;48.730;8.006;2022-07-05T02:49:00;100378.09;;;15.93;100.00
5522;BME280;2783;48.730;8.006;2022-07-05T02:51:26;100376.41;;;15.90;100.00
5522;BME280;2783;48.730;8.006;2022-07-05T02:53:51;100380.94;;;15.90;100.00
5522;BME280;2783;48.730;8.006;2022-07-05T02:56:17;100380.22;;;15.86;100.00
5522;BME280;2783;48.730;8.006;2022-07-05T02:58:42;100378.59;;;15.82;100.00
5522;BME280;2783;48.730;8.006;2022-07-05T03:01:07;100392.09;;;15.80;100.00
5522;BME280;2783;48.730;8.006;2022-07-05T03:03:33;100380.47;;;15.80;100.00
5522;BME280;2783;48.730;8.006;2022-07-05T03:05:58;100386.22;;;15.72;100.00
5522;BME280;2783;48.730;8.006;2022-07-05T03:08:23;100385.28;;;15.73;100.00
5522;BME280;2783;48.730;8.006;2022-07-05T03:10:49;100392.25;;;15.77;100.00
5522;BME280;2783;48.730;8.006;2022-07-05T03:13:14;100395.44;;;15.86;100.00
5522;BME280;2783;48.730;8.006;2022-07-05T03:15:40;100391.78;;;15.87;100.00
5522;BME280;2783;48.730;8.006;2022-07-05T03:18:05;100387.22;;;15.89;100.00
5522;BME280;2783;48.730;8.006;2022-07-05T03:20:31;100388.34;;;15.85;100.00
5522;BME280;2783;48.730;8.006;2022-07-05T03:22:56;100385.94;;;15.78;100.00
5522;BME280;2783;48.730;8.006;2022-07-05T03:25:22;100393.06;;;15.79;100.00
5522;BME280;2783;48.730;8.006;2022-07-05T03:27:47;100391.44;;;15.75;100.00
5522;BME280;2783;48.730;8.006;2022-07-05T03:30:13;100394.94;;;15.77;100.00
5522;BME280;2783;48.730;8.006;2022-07-05T03:32:38;100395.59;;;15.82;100.00
5522;BME280;2783;48.730;8.006;2022-07-05T03:35:04;100399.91;;;15.85;100.00
5522;BME280;2783;48.730;8.006;2022-07-05T03:37:29;100398.03;;;15.68;100.00
5522;BME280;2783;48.730;8.006;2022-07-05T03:39:55;100409.91;;;15.81;100.00
5522;BME280;2783;48.730;8.006;2022-07-05T03:42:20;100416.31;;;15.79;100.00
5522;BME280;2783;48.730;8.006;2022-07-05T03:44:45;100419.22;;;15.74;100.00
5522;BME280;2783;48.730;8.006;2022-07-05T03:47:11;100425.50;;;15.73;100.00
5522;BME280;2783;48.730;8.006;2022-07-05T03:49:38;100421.97;;;15.73;100.00
5522;BME280;2783;48.730;8.006;2022-07-05T03:52:03;100427.47;;;15.70;100.00
5522;BME280;2783;48.730;8.006;2022-07-05T03:54:29;100430.50;;;15.62;100.00
5522;BME280;2783;48.730;8.006;2022-07-05T03:56:54;100434.91;;;15.63;100.00
5522;BME280;2783;48.730;8.006;2022-07-05T03:59:19;100434.34;;;15.57;100.00
5522;BME280;2783;48.730;8.006;2022-07-05T04:01:45;100436.28;;;15.53;100.00
5522;BME280;2783;48.730;8.006;2022-07-05T04:04:10;100441.66;;;15.53;100.00
5522;BME280;2783;48.730;8.006;2022-07-05T04:06:36;100444.22;;;15.56;100.00
5522;BME280;2783;48.730;8.006;2022-07-05T04:09:01;100444.72;;;15.64;100.00
5522;BME280;2783;48.730;8.006;2022-07-05T04:11:27;100447.19;;;15.69;100.00
5522;BME280;2783;48.730;8.006;2022-07-05T04:13:52;100446.88;;;15.75;100.00
5522;BME280;2783;48.730;8.006;2022-07-05T04:16:17;100454.75;;;15.79;100.00
5522;BME280;2783;48.730;8.006;2022-07-05T04:18:43;100455.47;;;15.83;100.00
5522;BME280;2783;48.730;8.006;2022-07-05T04:21:08;100445.44;;;15.87;100.00
5522;BME280;2783;48.730;8.006;2022-07-05T04:23:34;100448.66;;;15.95;100.00
5522;BME280;2783;48.730;8.006;2022-07-05T04:26:02;100455.53;;;16.00;100.00
5522;BME280;2783;48.730;8.006;2022-07-05T04:28:27;100455.19;;;16.08;100.00
5522;BME280;2783;48.730;8.006;2022-07-05T04:30:58;100458.38;;;16.16;100.00
5522;BME280;2783;48.730;8.006;2022-07-05T04:33:23;100458.94;;;16.22;100.00
5522;BME280;2783;48.730;8.006;2022-07-05T04:35:49;100457.06;;;16.24;100.00
5522;BME280;2783;48.730;8.006;2022-07-05T04:38:14;100458.31;;;16.34;100.00
5522;BME280;2783;48.730;8.006;2022-07-05T04:40:40;100455.28;;;16.42;100.00
5522;BME280;2783;48.730;8.006;2022-07-05T04:43:06;100460.84;;;16.56;100.00
5522;BME280;2783;48.730;8.006;2022-07-05T04:45:32;100458.84;;;16.78;100.00
5522;BME280;2783;48.730;8.006;2022-07-05T04:47:57;100468.31;;;17.02;100.00
5522;BME280;2783;48.730;8.006;2022-07-05T04:50:23;100463.75;;;17.21;99.70
5522;BME280;2783;48.730;8.006;2022-07-05T04:52:48;100467.53;;;17.34;97.65
5522;BME280;2783;48.730;8.006;2022-07-05T04:55:14;100468.78;;;17.44;96.10
5522;BME280;2783;48.730;8.006;2022-07-05T04:57:41;100455.19;;;17.47;96.38
5522;BME280;2783;48.730;8.006;2022-07-05T05:00:08;100465.56;;;17.70;95.97
5522;BME280;2783;48.730;8.006;2022-07-05T05:02:34;100472.91;;;17.84;95.60
5522;BME280;2783;48.730;8.006;2022-07-05T05:05:00;100476.88;;;17.92;94.49
5522;BME280;2783;48.730;8.006;2022-07-05T05:07:26;100477.34;;;18.00;93.16
5522;BME280;2783;48.730;8.006;2022-07-05T05:09:51;100479.88;;;18.03;90.25
5522;BME280;2783;48.730;8.006;2022-07-05T05:12:17;100480.03;;;18.16;89.37
5522;BME280;2783;48.730;8.006;2022-07-05T05:14:42;100482.94;;;18.28;88.25
5522;BME280;2783;48.730;8.006;2022-07-05T05:17:07;100478.72;;;18.38;88.70
5522;BME280;2783;48.730;8.006;2022-07-05T05:19:33;100472.41;;;18.55;89.23
5522;BME280;2783;48.730;8.006;2022-07-05T05:21:58;100480.47;;;18.71;89.01
5522;BME280;2783;48.730;8.006;2022-07-05T05:24:24;100482.56;;;18.81;88.63
5522;BME280;2783;48.730;8.006;2022-07-05T05:26:49;100484.00;;;18.87;88.09
5522;BME280;2783;48.730;8.006;2022-07-05T05:29:16;100467.41;;;18.94;87.43
5522;BME280;2783;48.730;8.006;2022-07-05T05:31:42;100486.50;;;19.05;86.20
5522;BME280;2783;48.730;8.006;2022-07-05T05:34:07;100481.31;;;19.16;84.44
5522;BME280;2783;48.730;8.006;2022-07-05T05:36:33;100476.16;;;19.27;84.00
5522;BME280;2783;48.730;8.006;2022-07-05T05:38:58;100484.38;;;19.40;84.07
5522;BME280;2783;48.730;8.006;2022-07-05T05:41:23;100485.66;;;19.48;84.41
5522;BME280;2783;48.730;8.006;2022-07-05T05:43:49;100488.25;;;19.64;83.46
5522;BME280;2783;48.730;8.006;2022-07-05T05:46:14;100486.72;;;19.74;82.27
5522;BME280;2783;48.730;8.006;2022-07-05T05:48:40;100494.84;;;19.88;80.32
5522;BME280;2783;48.730;8.006;2022-07-05T05:51:05;100496.66;;;20.02;79.22
5522;BME280;2783;48.730;8.006;2022-07-05T05:53:30;100497.69;;;20.13;78.61
5522;BME280;2783;48.730;8.006;2022-07-05T05:55:56;100495.50;;;20.20;78.45
5522;BME280;2783;48.730;8.006;2022-07-05T05:58:23;100506.78;;;20.26;77.28
5522;BME280;2783;48.730;8.006;2022-07-05T06:00:51;100508.59;;;20.40;75.86
5522;BME280;2783;48.730;8.006;2022-07-05T06:03:26;100512.22;;;20.53;76.31
5522;BME280;2783;48.730;8.006;2022-07-05T06:05:52;100481.84;;;20.49;75.72
5522;BME280;2783;48.730;8.006;2022-07-05T06:08:18;100502.81;;;20.72;75.01
5522;BME280;2783;48.730;8.006;2022-07-05T06:10:43;100510.00;;;20.86;74.15
5522;BME280;2783;48.730;8.006;2022-07-05T06:13:10;100518.56;;;20.92;73.86
5522;BME280;2783;48.730;8.006;2022-07-05T06:15:37;100518.00;;;21.02;73.47
5522;BME280;2783;48.730;8.006;2022-07-05T06:18:03;100518.13;;;21.13;74.00
5522;BME280;2783;48.730;8.006;2022-07-05T06:20:32;100525.00;;;21.31;73.46
5522;BME280;2783;48.730;8.006;2022-07-05T06:22:58;100521.13;;;21.35;71.59
5522;BME280;2783;48.730;8.006;2022-07-05T06:25:25;100518.22;;;21.38;71.33
5522;BME280;2783;48.730;8.006;2022-07-05T06:30:19;100528.19;;;21.62;70.64
5522;BME280;2783;48.730;8.006;2022-07-05T06:32:46;100527.47;;;21.73;69.44
5522;BME280;2783;48.730;8.006;2022-07-05T06:35:12;100526.38;;;21.88;68.11
5522;BME280;2783;48.730;8.006;2022-07-05T06:37:50;100526.19;;;22.03;68.21
5522;BME280;2783;48.730;8.006;2022-07-05T06:40:26;100532.03;;;22.10;66.00
5522;BME280;2783;48.730;8.006;2022-07-05T06:42:52;100533.94;;;22.33;64.97
5522;BME280;2783;48.730;8.006;2022-07-05T06:45:21;100534.75;;;22.59;63.00
5522;BME280;2783;48.730;8.006;2022-07-05T06:50:19;100538.88;;;22.64;61.93
5522;BME280;2783;48.730;8.006;2022-07-05T06:52:45;100538.78;;;22.89;62.18
5522;BME280;2783;48.730;8.006;2022-07-05T06:55:10;100537.66;;;23.04;60.88
5522;BME280;2783;48.730;8.006;2022-07-05T06:57:35;100537.44;;;23.18;60.07
5522;BME280;2783;48.730;8.006;2022-07-05T07:00:01;100538.28;;;23.31;59.12
5522;BME280;2783;48.730;8.006;2022-07-05T07:02:27;100537.09;;;23.47;58.98
5522;BME280;2783;48.730;8.006;2022-07-05T07:04:52;100541.34;;;23.62;58.90
5522;BME280;2783;48.730;8.006;2022-07-05T07:07:18;100540.16;;;23.77;58.53
5522;BME280;2783;48.730;8.006;2022-07-05T07:10:03;100543.63;;;23.90;58.16
5522;BME280;2783;48.730;8.006;2022-07-05T07:12:29;100535.16;;;24.16;57.09
5522;BME280;2783;48.730;8.006;2022-07-05T07:14:58;100537.75;;;24.18;56.43
5522;BME280;2783;48.730;8.006;2022-07-05T07:17:24;100533.06;;;24.31;55.07
5522;BME280;2783;48.730;8.006;2022-07-05T07:19:50;100535.38;;;24.46;55.00
5522;BME280;2783;48.730;8.006;2022-07-05T07:22:15;100537.72;;;24.62;54.24
5522;BME280;2783;48.730;8.006;2022-07-05T07:24:41;100552.06;;;24.86;53.26
5522;BME280;2783;48.730;8.006;2022-07-05T07:27:06;100548.94;;;25.02;54.23
5522;BME280;2783;48.730;8.006;2022-07-05T07:29:37;100548.66;;;25.05;52.17
5522;BME280;2783;48.730;8.006;2022-07-05T07:32:04;100549.31;;;25.40;51.84
5522;BME280;2783;48.730;8.006;2022-07-05T07:34:32;100548.13;;;25.74;50.09
5522;BME280;2783;48.730;8.006;2022-07-05T07:36:58;100560.09;;;26.24;48.38
5522;BME280;2783;48.730;8.006;2022-07-05T07:39:24;100555.38;;;26.26;46.60
5522;BME280;2783;48.730;8.006;2022-07-05T07:41:50;100561.44;;;26.09;47.13
5522;BME280;2783;48.730;8.006;2022-07-05T07:44:16;100557.81;;;26.59;46.37
5522;BME280;2783;48.730;8.006;2022-07-05T07:46:41;100560.19;;;26.82;47.07
5522;BME280;2783;48.730;8.006;2022-07-05T07:49:08;100560.03;;;27.33;46.73
5522;BME280;2783;48.730;8.006;2022-07-05T07:51:33;100562.06;;;27.31;44.93
5522;BME280;2783;48.730;8.006;2022-07-05T07:53:59;100570.25;;;27.69;45.49
5522;BME280;2783;48.730;8.006;2022-07-05T07:56:25;100570.69;;;27.93;43.50
5522;BME280;2783;48.730;8.006;2022-07-05T07:58:50;100561.84;;;28.18;43.58
5522;BME280;2783;48.730;8.006;2022-07-05T08:01:16;100568.81;;;28.50;42.99
5522;BME280;2783;48.730;8.006;2022-07-05T08:03:41;100568.91;;;28.85;43.33
5522;BME280;2783;48.730;8.006;2022-07-05T08:06:08;100567.22;;;29.01;42.28
5522;BME280;2783;48.730;8.006;2022-07-05T08:08:41;100564.66;;;29.27;42.44
5522;BME280;2783;48.730;8.006;2022-07-05T08:11:09;100570.84;;;29.29;42.24
5522;BME280;2783;48.730;8.006;2022-07-05T08:13:35;100560.81;;;29.55;40.58
5522;BME280;2783;48.730;8.006;2022-07-05T08:16:01;100566.53;;;29.61;39.04
5522;BME280;2783;48.730;8.006;2022-07-05T08:18:27;100566.28;;;29.55;39.07
5522;BME280;2783;48.730;8.006;2022-07-05T08:21:12;100563.25;;;29.40;39.71
5522;BME280;2783;48.730;8.006;2022-07-05T08:23:55;100555.88;;;29.58;38.91
5522;BME280;2783;48.730;8.006;2022-07-05T08:26:21;100560.03;;;29.80;39.31
5522;BME280;2783;48.730;8.006;2022-07-05T08:28:47;100561.34;;;30.19;39.41
5522;BME280;2783;48.730;8.006;2022-07-05T08:31:13;100564.47;;;30.50;37.15
5522;BME280;2783;48.730;8.006;2022-07-05T08:33:38;100561.81;;;30.32;38.04
5522;BME280;2783;48.730;8.006;2022-07-05T08:36:04;100557.06;;;30.42;38.12
5522;BME280;2783;48.730;8.006;2022-07-05T08:38:29;100563.56;;;30.75;38.36
5522;BME280;2783;48.730;8.006;2022-07-05T08:40:56;100559.63;;;30.77;39.08
5522;BME280;2783;48.730;8.006;2022-07-05T08:43:22;100564.97;;;30.45;37.65
5522;BME280;2783;48.730;8.006;2022-07-05T08:45:49;100564.41;;;30.67;38.43
5522;BME280;2783;48.730;8.006;2022-07-05T08:48:16;100566.94;;;30.95;36.81
5522;BME280;2783;48.730;8.006;2022-07-05T08:50:43;100557.53;;;31.05;36.02
5522;BME280;2783;48.730;8.006;2022-07-05T08:53:09;100548.44;;;31.29;35.82
5522;BME280;2783;48.730;8.006;2022-07-05T08:55:34;100560.56;;;31.60;35.66
5522;BME280;2783;48.730;8.006;2022-07-05T08:58:00;100541.28;;;31.52;35.85
5522;BME280;2783;48.730;8.006;2022-07-05T09:00:26;100553.50;;;31.81;35.70
5522;BME280;2783;48.730;8.006;2022-07-05T09:02:52;100543.91;;;31.85;35.14
5522;BME280;2783;48.730;8.006;2022-07-05T09:05:19;100550.41;;;31.68;34.91
5522;BME280;2783;48.730;8.006;2022-07-05T09:07:57;100551.66;;;31.90;35.48
5522;BME280;2783;48.730;8.006;2022-07-05T09:10:26;100553.06;;;31.86;32.84
5522;BME280;2783;48.730;8.006;2022-07-05T09:12:51;100556.97;;;32.16;35.07
5522;BME280;2783;48.730;8.006;2022-07-05T09:15:17;100552.97;;;32.26;32.44
5522;BME280;2783;48.730;8.006;2022-07-05T09:17:45;100553.31;;;32.31;34.40
5522;BME280;2783;48.730;8.006;2022-07-05T09:20:16;100555.44;;;32.05;33.23
5522;BME280;2783;48.730;8.006;2022-07-05T09:22:47;100554.72;;;32.11;33.60
5522;BME280;2783;48.730;8.006;2022-07-05T09:25:23;100558.91;;;31.91;33.54
5522;BME280;2783;48.730;8.006;2022-07-05T09:27:56;100555.81;;;31.86;34.41
5522;BME280;2783;48.730;8.006;2022-07-05T09:30:34;100558.03;;;31.90;34.02
5522;BME280;2783;48.730;8.006;2022-07-05T09:33:09;100558.50;;;32.18;33.85
5522;BME280;2783;48.730;8.006;2022-07-05T09:35:37;100561.75;;;32.22;34.25
5522;BME280;2783;48.730;8.006;2022-07-05T09:38:04;100554.72;;;31.79;34.42
5522;BME280;2783;48.730;8.006;2022-07-05T09:40:31;100561.25;;;31.38;34.20
5522;BME280;2783;48.730;8.006;2022-07-05T09:43:13;100558.84;;;31.43;35.72
5522;BME280;2783;48.730;8.006;2022-07-05T09:45:40;100559.38;;;31.86;34.47
5522;BME280;2783;48.730;8.006;2022-07-05T09:48:14;100555.06;;;32.08;33.48
5522;BME280;2783;48.730;8.006;2022-07-05T09:50:40;100560.06;;;32.21;33.83
5522;BME280;2783;48.730;8.006;2022-07-05T09:53:05;100559.34;;;32.43;33.25
5522;BME280;2783;48.730;8.006;2022-07-05T09:55:31;100559.16;;;32.44;32.88
5522;BME280;2783;48.730;8.006;2022-07-05T09:57:58;100557.84;;;32.71;33.51
5522;BME280;2783;48.730;8.006;2022-07-05T10:00:24;100557.66;;;33.19;35.00
5522;BME280;2783;48.730;8.006;2022-07-05T10:02:51;100550.88;;;33.29;32.61
5522;BME280;2783;48.730;8.006;2022-07-05T10:05:19;100556.47;;;33.67;32.36
5522;BME280;2783;48.730;8.006;2022-07-05T10:07:47;100555.13;;;33.85;30.52
5522;BME280;2783;48.730;8.006;2022-07-05T10:10:33;100555.50;;;33.60;30.30
5522;BME280;2783;48.730;8.006;2022-07-05T10:13:01;100557.25;;;33.53;30.20
5522;BME280;2783;48.730;8.006;2022-07-05T10:15:33;100550.59;;;33.70;32.31
5522;BME280;2783;48.730;8.006;2022-07-05T10:18:11;100553.41;;;33.62;31.35
5522;BME280;2783;48.730;8.006;2022-07-05T10:23:04;100540.97;;;33.12;33.02
5522;BME280;2783;48.730;8.006;2022-07-05T10:25:30;100545.09;;;33.47;33.57
5522;BME280;2783;48.730;8.006;2022-07-05T10:27:57;100548.75;;;33.62;33.77
5522;BME280;2783;48.730;8.006;2022-07-05T10:30:23;100550.28;;;33.65;31.03
5522;BME280;2783;48.730;8.006;2022-07-05T10:32:49;100551.63;;;33.15;32.08
5522;BME280;2783;48.730;8.006;2022-07-05T10:35:16;100541.72;;;33.06;32.47
5522;BME280;2783;48.730;8.006;2022-07-05T10:37:42;100550.59;;;33.47;31.37
5522;BME280;2783;48.730;8.006;2022-07-05T10:40:09;100540.72;;;33.75;32.58
5522;BME280;2783;48.730;8.006;2022-07-05T10:42:55;100543.34;;;33.69;29.67
5522;BME280;2783;48.730;8.006;2022-07-05T10:45:37;100547.97;;;34.13;33.51
5522;BME280;2783;48.730;8.006;2022-07-05T10:53:14;100544.13;;;34.66;31.09
5522;BME280;2783;48.730;8.006;2022-07-05T10:58:38;100534.47;;;35.06;30.52
5522;BME280;2783;48.730;8.006;2022-07-05T11:03:49;100547.59;;;34.31;30.30
5522;BME280;2783;48.730;8.006;2022-07-05T11:06:31;100544.25;;;34.21;29.80
5522;BME280;2783;48.730;8.006;2022-07-05T11:11:41;100535.94;;;33.92;30.19
5522;BME280;2783;48.730;8.006;2022-07-05T11:22:22;100534.13;;;35.51;27.57
5522;BME280;2783;48.730;8.006;2022-07-05T11:24:48;100531.66;;;35.20;27.79
5522;BME280;2783;48.730;8.006;2022-07-05T11:27:13;100520.59;;;35.20;29.62
5522;BME280;2783;48.730;8.006;2022-07-05T11:29:52;100526.28;;;34.25;28.21
5522;BME280;2783;48.730;8.006;2022-07-05T11:32:23;100526.56;;;34.30;27.71
5522;BME280;2783;48.730;8.006;2022-07-05T11:34:51;100523.03;;;34.65;30.39
5522;BME280;2783;48.730;8.006;2022-07-05T11:37:18;100516.00;;;35.13;29.75
5522;BME280;2783;48.730;8.006;2022-07-05T11:39:45;100512.44;;;35.54;31.16
5522;BME280;2783;48.730;8.006;2022-07-05T11:42:20;100500.63;;;35.67;29.57
5522;BME280;2783;48.730;8.006;2022-07-05T11:44:50;100509.13;;;35.65;29.72
5522;BME280;2783;48.730;8.006;2022-07-05T11:47:19;100512.97;;;35.86;30.46
5522;BME280;2783;48.730;8.006;2022-07-05T11:49:55;100508.63;;;35.55;27.59
5522;BME280;2783;48.730;8.006;2022-07-05T11:52:32;100503.84;;;35.92;30.13
5522;BME280;2783;48.730;8.006;2022-07-05T11:55:05;100499.09;;;36.34;28.27
5522;BME280;2783;48.730;8.006;2022-07-05T11:57:31;100500.56;;;36.71;30.43
5522;BME280;2783;48.730;8.006;2022-07-05T11:59:56;100501.81;;;36.62;26.82
5522;BME280;2783;48.730;8.006;2022-07-05T12:02:22;100493.00;;;36.18;28.41
5522;BME280;2783;48.730;8.006;2022-07-05T12:04:55;100486.63;;;36.24;29.22
5522;BME280;2783;48.730;8.006;2022-07-05T12:07:28;100494.00;;;36.44;28.35
5522;BME280;2783;48.730;8.006;2022-07-05T12:09:54;100492.75;;;36.87;26.54
5522;BME280;2783;48.730;8.006;2022-07-05T12:12:39;100491.75;;;36.95;25.59
5522;BME280;2783;48.730;8.006;2022-07-05T12:15:16;100478.06;;;36.87;27.89
5522;BME280;2783;48.730;8.006;2022-07-05T12:17:44;100481.78;;;36.66;28.73
5522;BME280;2783;48.730;8.006;2022-07-05T12:20:12;100484.66;;;35.90;27.72
5522;BME280;2783;48.730;8.006;2022-07-05T12:22:39;100478.28;;;36.17;28.29
5522;BME280;2783;48.730;8.006;2022-07-05T12:25:07;100482.34;;;36.49;28.66
5522;BME280;2783;48.730;8.006;2022-07-05T12:27:35;100479.47;;;36.76;27.09
5522;BME280;2783;48.730;8.006;2022-07-05T12:30:02;100478.94;;;36.53;25.18
5522;BME280;2783;48.730;8.006;2022-07-05T12:32:28;100475.88;;;36.82;27.36
5522;BME280;2783;48.730;8.006;2022-07-05T12:34:56;100481.78;;;36.66;25.76
5522;BME280;2783;48.730;8.006;2022-07-05T12:37:23;100475.31;;;36.59;27.08
5522;BME280;2783;48.730;8.006;2022-07-05T12:39:50;100482.94;;;36.78;28.38
5522;BME280;2783;48.730;8.006;2022-07-05T12:42:33;100480.25;;;37.05;28.00
5522;BME280;2783;48.730;8.006;2022-07-05T12:45:09;100476.97;;;36.81;26.58
5522;BME280;2783;48.730;8.006;2022-07-05T12:47:49;100473.22;;;36.61;28.14
5522;BME280;2783;48.730;8.006;2022-07-05T12:50:15;100470.66;;;36.60;26.64
5522;BME280;2783;48.730;8.006;2022-07-05T12:53:06;100479.63;;;36.62;26.12
5522;BME280;2783;48.730;8.006;2022-07-05T13:19:18;100466.56;;;34.53;29.20
5522;BME280;2783;48.730;8.006;2022-07-05T13:21:44;100462.75;;;34.54;28.30
5522;BME280;2783;48.730;8.006;2022-07-05T13:24:09;100457.44;;;34.74;30.31
5522;BME280;2783;48.730;8.006;2022-07-05T13:26:35;100462.09;;;35.02;28.17
5522;BME280;2783;48.730;8.006;2022-07-05T13:29:00;100461.16;;;34.95;26.09
5522;BME280;2783;48.730;8.006;2022-07-05T13:31:25;100453.13;;;35.00;29.42
5522;BME280;2783;48.730;8.006;2022-07-05T13:33:54;100448.56;;;34.78;28.22
5522;BME280;2783;48.730;8.006;2022-07-05T13:36:19;100451.34;;;34.78;27.72
5522;BME280;2783;48.730;8.006;2022-07-05T13:38:44;100452.28;;;34.85;27.37
5522;BME280;2783;48.730;8.006;2022-07-05T13:41:10;100453.19;;;34.71;28.17
5522;BME280;2783;48.730;8.006;2022-07-05T13:43:35;100455.16;;;34.77;29.61
5522;BME280;2783;48.730;8.006;2022-07-05T13:46:00;100458.75;;;34.42;29.02
5522;BME280;2783;48.730;8.006;2022-07-05T13:48:29;100459.81;;;34.41;29.77
5522;BME280;2783;48.730;8.006;2022-07-05T13:50:54;100449.22;;;34.44;30.08
5522;BME280;2783;48.730;8.006;2022-07-05T13:53:20;100455.16;;;34.41;29.53
5522;BME280;2783;48.730;8.006;2022-07-05T13:55:46;100451.31;;;34.28;29.22
5522;BME280;2783;48.730;8.006;2022-07-05T13:58:11;100453.00;;;34.00;28.57
5522;BME280;2783;48.730;8.006;2022-07-05T14:00:37;100447.19;;;33.95;29.03